sensor_id;sensor_type;location;lat;lon;timestamp;temperature;humidity
326;DHT22;150;52.352;14.058;2023-12-22T00:01:39;7.00;32.70
326;DHT22;150;52.352;14.058;2023-12-22T00:04:05;7.00;32.20
326;DHT22;150;52.352;14.058;2023-12-22T00:06:32;7.00;31.40
326;DHT22;150;52.352;14.058;2023-12-22T00:09:00;7.00;31.60
326;DHT22;150;52.352;14.058;2023-12-22T00:11:26;6.90;30.10
326;DHT22;150;52.352;14.058;2023-12-22T00:13:53;6.80;30.70
326;DHT22;150;52.352;14.058;2023-12-22T00:16:19;6.80;30.80
326;DHT22;150;52.352;14.058;2023-12-22T00:18:46;6.70;30.60
326;DHT22;150;52.352;14.058;2023-12-22T00:21:13;6.70;30.60
326;DHT22;150;52.352;14.058;2023-12-22T00:23:39;6.70;30.00
326;DHT22;150;52.352;14.058;2023-12-22T00:26:07;6.70;29.90
326;DHT22;150;52.352;14.058;2023-12-22T00:28:34;6.60;30.00
326;DHT22;150;52.352;14.058;2023-12-22T00:31:00;6.60;30.10
326;DHT22;150;52.352;14.058;2023-12-22T00:33:27;6.60;30.80
326;DHT22;150;52.352;14.058;2023-12-22T00:35:53;6.50;29.70
326;DHT22;150;52.352;14.058;2023-12-22T00:38:20;6.50;29.40
326;DHT22;150;52.352;14.058;2023-12-22T00:40:46;6.50;29.80
326;DHT22;150;52.352;14.058;2023-12-22T00:43:14;6.50;30.00
326;DHT22;150;52.352;14.058;2023-12-22T00:45:41;6.30;29.20
326;DHT22;150;52.352;14.058;2023-12-22T00:48:07;6.20;29.70
326;DHT22;150;52.352;14.058;2023-12-22T00:50:34;6.30;29.30
326;DHT22;150;52.352;14.058;2023-12-22T00:53:00;6.30;30.30
326;DHT22;150;52.352;14.058;2023-12-22T00:55:27;6.30;29.70
326;DHT22;150;52.352;14.058;2023-12-22T00:57:54;6.30;29.00
326;DHT22;150;52.352;14.058;2023-12-22T01:00:22;6.30;28.50
326;DHT22;150;52.352;14.058;2023-12-22T01:02:48;6.20;28.50
326;DHT22;150;52.352;14.058;2023-12-22T01:05:15;6.10;27.90
326;DHT22;150;52.352;14.058;2023-12-22T01:07:41;6.10;28.30
326;DHT22;150;52.352;14.058;2023-12-22T01:10:09;6.10;28.00
326;DHT22;150;52.352;14.058;2023-12-22T01:12:35;6.00;28.10
326;DHT22;150;52.352;14.058;2023-12-22T01:15:02;6.10;28.40
326;DHT22;150;52.352;14.058;2023-12-22T01:17:30;6.10;28.10
326;DHT22;150;52.352;14.058;2023-12-22T01:19:57;6.10;27.90
326;DHT22;150;52.352;14.058;2023-12-22T01:22:23;6.10;28.30
326;DHT22;150;52.352;14.058;2023-12-22T01:24:50;6.10;29.00
326;DHT22;150;52.352;14.058;2023-12-22T01:27:16;6.20;28.70
326;DHT22;150;52.352;14.058;2023-12-22T01:29:43;6.20;29.50
326;DHT22;150;52.352;14.058;2023-12-22T01:32:10;6.20;29.30
326;DHT22;150;52.352;14.058;2023-12-22T01:34:37;6.10;29.70
326;DHT22;150;52.352;14.058;2023-12-22T01:37:04;6.20;29.80
326;DHT22;150;52.352;14.058;2023-12-22T01:39:30;6.20;30.20
326;DHT22;150;52.352;14.058;2023-12-22T01:41:57;6.10;30.20
326;DHT22;150;52.352;14.058;2023-12-22T01:44:24;6.10;30.20
326;DHT22;150;52.352;14.058;2023-12-22T01:46:50;6.20;30.20
326;DHT22;150;52.352;14.058;2023-12-22T01:49:17;6.20;31.30
326;DHT22;150;52.352;14.058;2023-12-22T01:51:46;6.20;30.80
326;DHT22;150;52.352;14.058;2023-12-22T01:54:14;6.20;31.00
326;DHT22;150;52.352;14.058;2023-12-22T01:56:42;6.10;32.00
326;DHT22;150;52.352;14.058;2023-12-22T01:59:09;6.10;32.00
326;DHT22;150;52.352;14.058;2023-12-22T02:01:36;6.10;32.50
326;DHT22;150;52.352;14.058;2023-12-22T02:04:03;6.10;32.50
326;DHT22;150;52.352;14.058;2023-12-22T02:06:31;6.00;32.40
326;DHT22;150;52.352;14.058;2023-12-22T02:09:02;5.90;32.80
326;DHT22;150;52.352;14.058;2023-12-22T02:11:29;5.90;32.80
326;DHT22;150;52.352;14.058;2023-12-22T02:13:56;5.90;33.40
326;DHT22;150;52.352;14.058;2023-12-22T02:16:39;5.80;33.40
326;DHT22;150;52.352;14.058;2023-12-22T02:19:17;5.90;33.80
326;DHT22;150;52.352;14.058;2023-12-22T02:22:07;5.90;33.80
326;DHT22;150;52.352;14.058;2023-12-22T02:24:35;5.90;33.70
326;DHT22;150;52.352;14.058;2023-12-22T02:27:05;5.90;34.10
326;DHT22;150;52.352;14.058;2023-12-22T02:29:36;5.80;33.80
326;DHT22;150;52.352;14.058;2023-12-22T02:32:07;5.90;34.10
326;DHT22;150;52.352;14.058;2023-12-22T02:34:35;5.90;33.70
326;DHT22;150;52.352;14.058;2023-12-22T02:37:05;5.90;33.60
326;DHT22;150;52.352;14.058;2023-12-22T02:39:32;5.80;33.90
326;DHT22;150;52.352;14.058;2023-12-22T02:42:00;5.80;34.00
326;DHT22;150;52.352;14.058;2023-12-22T02:44:27;5.90;33.70
326;DHT22;150;52.352;14.058;2023-12-22T02:46:54;5.90;33.80
326;DHT22;150;52.352;14.058;2023-12-22T02:49:20;5.80;34.30
326;DHT22;150;52.352;14.058;2023-12-22T02:51:47;5.80;33.60
326;DHT22;150;52.352;14.058;2023-12-22T02:54:13;5.80;32.80
326;DHT22;150;52.352;14.058;2023-12-22T02:56:40;5.80;32.30
326;DHT22;150;52.352;14.058;2023-12-22T02:59:09;5.80;32.10
326;DHT22;150;52.352;14.058;2023-12-22T03:01:36;5.80;32.30
326;DHT22;150;52.352;14.058;2023-12-22T03:04:02;5.70;32.60
326;DHT22;150;52.352;14.058;2023-12-22T03:06:29;5.80;33.40
326;DHT22;150;52.352;14.058;2023-12-22T03:08:55;5.80;33.10
326;DHT22;150;52.352;14.058;2023-12-22T03:11:22;5.80;33.50
326;DHT22;150;52.352;14.058;2023-12-22T03:13:49;5.80;33.40
326;DHT22;150;52.352;14.058;2023-12-22T03:16:16;5.80;34.00
326;DHT22;150;52.352;14.058;2023-12-22T03:18:43;5.80;33.60
326;DHT22;150;52.352;14.058;2023-12-22T03:21:16;5.80;33.80
326;DHT22;150;52.352;14.058;2023-12-22T03:23:43;5.80;33.20
326;DHT22;150;52.352;14.058;2023-12-22T03:26:09;5.80;33.40
326;DHT22;150;52.352;14.058;2023-12-22T03:28:36;5.80;33.30
326;DHT22;150;52.352;14.058;2023-12-22T03:31:03;5.80;33.30
326;DHT22;150;52.352;14.058;2023-12-22T03:33:33;5.80;33.20
326;DHT22;150;52.352;14.058;2023-12-22T03:36:00;5.70;33.60
326;DHT22;150;52.352;14.058;2023-12-22T03:38:26;5.70;33.80
326;DHT22;150;52.352;14.058;2023-12-22T03:40:53;5.70;33.80
326;DHT22;150;52.352;14.058;2023-12-22T03:43:19;5.70;34.20
326;DHT22;150;52.352;14.058;2023-12-22T03:45:45;5.60;34.00
326;DHT22;150;52.352;14.058;2023-12-22T03:48:12;5.60;33.70
326;DHT22;150;52.352;14.058;2023-12-22T03:50:40;5.60;33.00
326;DHT22;150;52.352;14.058;2023-12-22T03:53:07;5.60;33.60
326;DHT22;150;52.352;14.058;2023-12-22T03:55:33;5.50;34.40
326;DHT22;150;52.352;14.058;2023-12-22T03:58:00;5.60;34.50
326;DHT22;150;52.352;14.058;2023-12-22T04:00:26;5.60;33.90
326;DHT22;150;52.352;14.058;2023-12-22T04:02:53;5.60;33.90
326;DHT22;150;52.352;14.058;2023-12-22T04:05:19;5.70;34.00
326;DHT22;150;52.352;14.058;2023-12-22T04:07:47;5.60;34.70
326;DHT22;150;52.352;14.058;2023-12-22T04:10:16;5.60;35.10
326;DHT22;150;52.352;14.058;2023-12-22T04:12:43;5.60;34.90
326;DHT22;150;52.352;14.058;2023-12-22T04:15:10;5.60;34.80
326;DHT22;150;52.352;14.058;2023-12-22T04:17:36;5.60;35.00
326;DHT22;150;52.352;14.058;2023-12-22T04:20:04;5.50;35.10
326;DHT22;150;52.352;14.058;2023-12-22T04:22:31;5.50;35.50
326;DHT22;150;52.352;14.058;2023-12-22T04:24:59;5.60;35.20
326;DHT22;150;52.352;14.058;2023-12-22T04:27:25;5.60;35.10
326;DHT22;150;52.352;14.058;2023-12-22T04:29:52;5.70;35.20
326;DHT22;150;52.352;14.058;2023-12-22T04:32:18;5.70;35.20
326;DHT22;150;52.352;14.058;2023-12-22T04:34:45;5.80;35.00
326;DHT22;150;52.352;14.058;2023-12-22T04:37:11;5.80;34.80
326;DHT22;150;52.352;14.058;2023-12-22T04:39:38;5.80;35.30
326;DHT22;150;52.352;14.058;2023-12-22T04:42:06;5.80;35.20
326;DHT22;150;52.352;14.058;2023-12-22T04:44:32;5.80;35.00
326;DHT22;150;52.352;14.058;2023-12-22T04:46:59;5.70;34.90
326;DHT22;150;52.352;14.058;2023-12-22T04:49:26;5.70;34.80
326;DHT22;150;52.352;14.058;2023-12-22T04:51:52;5.70;35.20
326;DHT22;150;52.352;14.058;2023-12-22T04:54:19;5.70;35.20
326;DHT22;150;52.352;14.058;2023-12-22T04:56:45;5.70;35.20
326;DHT22;150;52.352;14.058;2023-12-22T04:59:13;5.70;35.60
326;DHT22;150;52.352;14.058;2023-12-22T05:01:40;5.70;35.50
326;DHT22;150;52.352;14.058;2023-12-22T05:04:08;5.60;36.20
326;DHT22;150;52.352;14.058;2023-12-22T05:06:34;5.60;37.20
326;DHT22;150;52.352;14.058;2023-12-22T05:09:00;5.50;36.80
326;DHT22;150;52.352;14.058;2023-12-22T05:11:28;5.50;37.30
326;DHT22;150;52.352;14.058;2023-12-22T05:13:54;5.60;37.40
326;DHT22;150;52.352;14.058;2023-12-22T05:16:22;5.50;37.50
326;DHT22;150;52.352;14.058;2023-12-22T05:18:49;5.60;38.10
326;DHT22;150;52.352;14.058;2023-12-22T05:21:15;5.60;38.30
326;DHT22;150;52.352;14.058;2023-12-22T05:23:42;5.50;38.30
326;DHT22;150;52.352;14.058;2023-12-22T05:26:08;5.50;39.40
326;DHT22;150;52.352;14.058;2023-12-22T05:28:35;5.60;40.40
326;DHT22;150;52.352;14.058;2023-12-22T05:31:01;5.50;40.90
326;DHT22;150;52.352;14.058;2023-12-22T05:33:29;5.40;42.00
326;DHT22;150;52.352;14.058;2023-12-22T05:35:56;5.40;43.30
326;DHT22;150;52.352;14.058;2023-12-22T05:38:22;5.40;43.90
326;DHT22;150;52.352;14.058;2023-12-22T05:40:49;5.40;44.30
326;DHT22;150;52.352;14.058;2023-12-22T05:43:15;5.20;45.20
326;DHT22;150;52.352;14.058;2023-12-22T05:45:42;5.20;45.70
326;DHT22;150;52.352;14.058;2023-12-22T05:48:09;5.20;46.20
326;DHT22;150;52.352;14.058;2023-12-22T05:50:37;5.10;45.70
326;DHT22;150;52.352;14.058;2023-12-22T05:53:03;5.10;45.70
326;DHT22;150;52.352;14.058;2023-12-22T05:55:30;5.10;46.00
326;DHT22;150;52.352;14.058;2023-12-22T05:57:56;5.10;45.10
326;DHT22;150;52.352;14.058;2023-12-22T06:00:23;5.00;46.00
326;DHT22;150;52.352;14.058;2023-12-22T06:02:49;5.00;46.20
326;DHT22;150;52.352;14.058;2023-12-22T06:05:16;5.00;46.30
326;DHT22;150;52.352;14.058;2023-12-22T06:07:44;5.00;46.70
326;DHT22;150;52.352;14.058;2023-12-22T06:10:10;5.00;46.70
326;DHT22;150;52.352;14.058;2023-12-22T06:12:37;5.00;46.80
326;DHT22;150;52.352;14.058;2023-12-22T06:15:04;5.00;47.00
326;DHT22;150;52.352;14.058;2023-12-22T06:17:31;4.90;46.80
326;DHT22;150;52.352;14.058;2023-12-22T06:19:58;4.90;47.20
326;DHT22;150;52.352;14.058;2023-12-22T06:22:24;4.90;47.30
326;DHT22;150;52.352;14.058;2023-12-22T06:24:52;4.90;47.40
326;DHT22;150;52.352;14.058;2023-12-22T06:27:19;4.90;46.30
326;DHT22;150;52.352;14.058;2023-12-22T06:29:45;4.90;46.20
326;DHT22;150;52.352;14.058;2023-12-22T06:32:12;4.90;45.70
326;DHT22;150;52.352;14.058;2023-12-22T06:34:39;4.80;45.60
326;DHT22;150;52.352;14.058;2023-12-22T06:37:05;4.80;45.80
326;DHT22;150;52.352;14.058;2023-12-22T06:39:33;4.80;45.90
326;DHT22;150;52.352;14.058;2023-12-22T06:42:01;4.90;45.90
326;DHT22;150;52.352;14.058;2023-12-22T06:44:28;5.00;45.10
326;DHT22;150;52.352;14.058;2023-12-22T06:46:56;5.00;44.30
326;DHT22;150;52.352;14.058;2023-12-22T06:49:23;5.00;42.70
326;DHT22;150;52.352;14.058;2023-12-22T06:51:50;4.90;42.50
326;DHT22;150;52.352;14.058;2023-12-22T06:54:17;4.80;43.10
326;DHT22;150;52.352;14.058;2023-12-22T06:56:43;4.70;42.40
326;DHT22;150;52.352;14.058;2023-12-22T06:59:11;4.70;42.20
326;DHT22;150;52.352;14.058;2023-12-22T07:01:40;4.70;41.80
326;DHT22;150;52.352;14.058;2023-12-22T07:04:06;4.70;42.00
326;DHT22;150;52.352;14.058;2023-12-22T07:06:34;4.80;42.00
326;DHT22;150;52.352;14.058;2023-12-22T07:09:32;4.90;41.50
326;DHT22;150;52.352;14.058;2023-12-22T07:11:59;4.90;40.60
326;DHT22;150;52.352;14.058;2023-12-22T07:14:27;4.80;40.20
326;DHT22;150;52.352;14.058;2023-12-22T07:16:54;4.80;40.90
326;DHT22;150;52.352;14.058;2023-12-22T07:19:22;4.90;41.10
326;DHT22;150;52.352;14.058;2023-12-22T07:21:49;5.00;41.30
326;DHT22;150;52.352;14.058;2023-12-22T07:24:15;5.10;41.70
326;DHT22;150;52.352;14.058;2023-12-22T07:26:42;5.10;42.10
326;DHT22;150;52.352;14.058;2023-12-22T07:29:09;5.10;42.30
326;DHT22;150;52.352;14.058;2023-12-22T07:31:37;5.10;43.20
326;DHT22;150;52.352;14.058;2023-12-22T07:34:04;4.90;44.00
326;DHT22;150;52.352;14.058;2023-12-22T07:36:30;4.80;44.90
326;DHT22;150;52.352;14.058;2023-12-22T07:38:57;4.80;45.40
326;DHT22;150;52.352;14.058;2023-12-22T07:41:24;4.80;45.90
326;DHT22;150;52.352;14.058;2023-12-22T07:43:51;4.80;45.90
326;DHT22;150;52.352;14.058;2023-12-22T07:46:17;4.70;46.20
326;DHT22;150;52.352;14.058;2023-12-22T07:48:45;4.60;46.40
326;DHT22;150;52.352;14.058;2023-12-22T07:51:12;4.60;47.20
326;DHT22;150;52.352;14.058;2023-12-22T07:53:38;4.50;48.20
326;DHT22;150;52.352;14.058;2023-12-22T07:56:06;4.60;48.50
326;DHT22;150;52.352;14.058;2023-12-22T07:58:33;4.50;48.20
326;DHT22;150;52.352;14.058;2023-12-22T08:01:00;4.50;48.30
326;DHT22;150;52.352;14.058;2023-12-22T08:03:26;4.50;47.90
326;DHT22;150;52.352;14.058;2023-12-22T08:05:54;4.60;47.90
326;DHT22;150;52.352;14.058;2023-12-22T08:08:21;4.60;47.40
326;DHT22;150;52.352;14.058;2023-12-22T08:10:48;4.70;47.00
326;DHT22;150;52.352;14.058;2023-12-22T08:13:14;4.70;45.30
326;DHT22;150;52.352;14.058;2023-12-22T08:15:43;4.60;45.00
326;DHT22;150;52.352;14.058;2023-12-22T08:18:09;4.70;44.40
326;DHT22;150;52.352;14.058;2023-12-22T08:20:37;4.70;44.40
326;DHT22;150;52.352;14.058;2023-12-22T08:23:05;4.70;44.50
326;DHT22;150;52.352;14.058;2023-12-22T08:25:31;4.80;43.60
326;DHT22;150;52.352;14.058;2023-12-22T08:27:58;4.90;43.70
326;DHT22;150;52.352;14.058;2023-12-22T08:30:24;4.90;41.50
326;DHT22;150;52.352;14.058;2023-12-22T08:32:51;5.00;42.40
326;DHT22;150;52.352;14.058;2023-12-22T08:35:18;5.00;41.70
326;DHT22;150;52.352;14.058;2023-12-22T08:37:44;5.00;40.10
326;DHT22;150;52.352;14.058;2023-12-22T08:40:12;5.10;40.90
326;DHT22;150;52.352;14.058;2023-12-22T08:42:39;5.10;39.30
326;DHT22;150;52.352;14.058;2023-12-22T08:45:07;5.00;39.90
326;DHT22;150;52.352;14.058;2023-12-22T08:47:33;5.00;39.20
326;DHT22;150;52.352;14.058;2023-12-22T08:50:00;5.10;39.40
326;DHT22;150;52.352;14.058;2023-12-22T08:52:29;5.10;38.60
326;DHT22;150;52.352;14.058;2023-12-22T08:54:55;5.10;38.30
326;DHT22;150;52.352;14.058;2023-12-22T08:57:23;5.10;37.60
326;DHT22;150;52.352;14.058;2023-12-22T08:59:50;5.20;37.70
326;DHT22;150;52.352;14.058;2023-12-22T09:02:17;5.20;36.90
326;DHT22;150;52.352;14.058;2023-12-22T09:04:43;5.30;36.90
326;DHT22;150;52.352;14.058;2023-12-22T09:07:10;5.40;35.90
326;DHT22;150;52.352;14.058;2023-12-22T09:09:36;5.50;36.20
326;DHT22;150;52.352;14.058;2023-12-22T09:12:03;5.50;35.70
326;DHT22;150;52.352;14.058;2023-12-22T09:14:31;5.40;35.00
326;DHT22;150;52.352;14.058;2023-12-22T09:16:58;5.30;35.30
326;DHT22;150;52.352;14.058;2023-12-22T09:19:25;5.40;35.00
326;DHT22;150;52.352;14.058;2023-12-22T09:21:52;5.50;34.70
326;DHT22;150;52.352;14.058;2023-12-22T09:24:18;5.50;34.90
326;DHT22;150;52.352;14.058;2023-12-22T09:26:45;5.50;34.30
326;DHT22;150;52.352;14.058;2023-12-22T09:29:11;5.50;34.30
326;DHT22;150;52.352;14.058;2023-12-22T09:31:39;5.60;34.10
326;DHT22;150;52.352;14.058;2023-12-22T09:34:06;5.60;33.90
326;DHT22;150;52.352;14.058;2023-12-22T09:36:33;5.50;33.40
326;DHT22;150;52.352;14.058;2023-12-22T09:38:59;5.60;33.20
326;DHT22;150;52.352;14.058;2023-12-22T09:41:26;5.70;33.30
326;DHT22;150;52.352;14.058;2023-12-22T09:43:56;5.70;33.30
326;DHT22;150;52.352;14.058;2023-12-22T09:46:25;5.80;32.90
326;DHT22;150;52.352;14.058;2023-12-22T09:48:54;5.70;31.70
326;DHT22;150;52.352;14.058;2023-12-22T09:51:21;5.60;32.10
326;DHT22;150;52.352;14.058;2023-12-22T09:53:49;5.60;32.20
326;DHT22;150;52.352;14.058;2023-12-22T09:56:18;5.60;31.90
326;DHT22;150;52.352;14.058;2023-12-22T09:58:46;5.70;31.40
326;DHT22;150;52.352;14.058;2023-12-22T10:01:14;5.80;31.40
326;DHT22;150;52.352;14.058;2023-12-22T10:03:41;5.80;32.00
326;DHT22;150;52.352;14.058;2023-12-22T10:06:11;5.80;30.70
326;DHT22;150;52.352;14.058;2023-12-22T10:08:39;5.90;30.00
326;DHT22;150;52.352;14.058;2023-12-22T10:11:06;5.80;30.00
326;DHT22;150;52.352;14.058;2023-12-22T10:13:36;5.80;30.00
326;DHT22;150;52.352;14.058;2023-12-22T10:16:04;5.80;30.00
326;DHT22;150;52.352;14.058;2023-12-22T10:18:32;5.80;30.00
326;DHT22;150;52.352;14.058;2023-12-22T10:20:59;5.80;29.30
326;DHT22;150;52.352;14.058;2023-12-22T10:23:27;5.90;29.50
326;DHT22;150;52.352;14.058;2023-12-22T10:25:54;5.80;28.50
326;DHT22;150;52.352;14.058;2023-12-22T10:28:23;6.00;29.00
326;DHT22;150;52.352;14.058;2023-12-22T10:30:51;6.00;28.00
326;DHT22;150;52.352;14.058;2023-12-22T10:33:18;6.20;28.50
326;DHT22;150;52.352;14.058;2023-12-22T10:35:45;6.30;29.00
326;DHT22;150;52.352;14.058;2023-12-22T10:38:11;6.30;28.10
326;DHT22;150;52.352;14.058;2023-12-22T10:40:39;6.40;27.80
326;DHT22;150;52.352;14.058;2023-12-22T10:43:06;6.30;28.30
326;DHT22;150;52.352;14.058;2023-12-22T10:45:33;6.30;28.10
326;DHT22;150;52.352;14.058;2023-12-22T10:47:59;6.40;27.70
326;DHT22;150;52.352;14.058;2023-12-22T10:50:28;6.30;27.70
326;DHT22;150;52.352;14.058;2023-12-22T10:52:55;6.20;28.00
326;DHT22;150;52.352;14.058;2023-12-22T10:55:21;6.20;27.70
326;DHT22;150;52.352;14.058;2023-12-22T10:57:50;6.20;27.60
326;DHT22;150;52.352;14.058;2023-12-22T11:00:20;6.10;27.60
326;DHT22;150;52.352;14.058;2023-12-22T11:02:47;6.10;26.90
326;DHT22;150;52.352;14.058;2023-12-22T11:05:15;6.20;27.10
326;DHT22;150;52.352;14.058;2023-12-22T11:07:46;6.20;27.30
326;DHT22;150;52.352;14.058;2023-12-22T11:10:14;6.20;26.10
326;DHT22;150;52.352;14.058;2023-12-22T11:12:47;6.30;26.90
326;DHT22;150;52.352;14.058;2023-12-22T11:15:15;6.30;26.70
326;DHT22;150;52.352;14.058;2023-12-22T11:17:44;6.40;26.00
326;DHT22;150;52.352;14.058;2023-12-22T11:20:13;6.40;26.40
326;DHT22;150;52.352;14.058;2023-12-22T11:22:40;6.50;26.10
326;DHT22;150;52.352;14.058;2023-12-22T11:25:08;6.50;25.50
326;DHT22;150;52.352;14.058;2023-12-22T11:27:37;6.60;25.50
326;DHT22;150;52.352;14.058;2023-12-22T11:30:05;6.70;24.60
326;DHT22;150;52.352;14.058;2023-12-22T11:32:35;6.60;25.00
326;DHT22;150;52.352;14.058;2023-12-22T11:35:02;6.70;25.40
326;DHT22;150;52.352;14.058;2023-12-22T11:37:31;6.60;24.80
326;DHT22;150;52.352;14.058;2023-12-22T11:39:57;6.60;24.00
326;DHT22;150;52.352;14.058;2023-12-22T11:42:28;6.40;24.50
326;DHT22;150;52.352;14.058;2023-12-22T11:44:57;6.50;24.30
326;DHT22;150;52.352;14.058;2023-12-22T11:47:24;6.40;24.30
326;DHT22;150;52.352;14.058;2023-12-22T11:49:52;6.40;24.70
326;DHT22;150;52.352;14.058;2023-12-22T11:52:26;6.50;24.80
326;DHT22;150;52.352;14.058;2023-12-22T11:54:54;6.50;24.20
326;DHT22;150;52.352;14.058;2023-12-22T11:57:31;6.50;24.80
326;DHT22;150;52.352;14.058;2023-12-22T12:00:02;6.50;24.80
326;DHT22;150;52.352;14.058;2023-12-22T12:02:32;6.50;23.60
326;DHT22;150;52.352;14.058;2023-12-22T12:05:00;6.50;24.30
326;DHT22;150;52.352;14.058;2023-12-22T12:07:37;6.50;24.60
326;DHT22;150;52.352;14.058;2023-12-22T12:10:05;6.60;24.30
326;DHT22;150;52.352;14.058;2023-12-22T12:12:32;6.60;23.80
326;DHT22;150;52.352;14.058;2023-12-22T12:15:06;6.50;24.40
326;DHT22;150;52.352;14.058;2023-12-22T12:17:37;6.60;23.80
326;DHT22;150;52.352;14.058;2023-12-22T12:20:07;6.70;23.40
326;DHT22;150;52.352;14.058;2023-12-22T12:22:34;6.70;23.70
326;DHT22;150;52.352;14.058;2023-12-22T12:25:06;6.70;23.50
326;DHT22;150;52.352;14.058;2023-12-22T12:27:34;6.70;23.10
326;DHT22;150;52.352;14.058;2023-12-22T12:30:07;6.70;23.40
326;DHT22;150;52.352;14.058;2023-12-22T12:32:35;6.70;23.20
326;DHT22;150;52.352;14.058;2023-12-22T12:35:02;6.80;24.10
326;DHT22;150;52.352;14.058;2023-12-22T12:37:31;6.60;24.10
326;DHT22;150;52.352;14.058;2023-12-22T12:39:59;6.70;24.20
326;DHT22;150;52.352;14.058;2023-12-22T12:42:30;6.70;24.30
326;DHT22;150;52.352;14.058;2023-12-22T12:44:57;6.70;24.00
326;DHT22;150;52.352;14.058;2023-12-22T12:47:23;6.60;24.50
326;DHT22;150;52.352;14.058;2023-12-22T12:49:56;6.60;24.30
326;DHT22;150;52.352;14.058;2023-12-22T12:52:23;6.60;25.10
326;DHT22;150;52.352;14.058;2023-12-22T12:54:52;6.60;24.60
326;DHT22;150;52.352;14.058;2023-12-22T12:57:19;6.60;23.90
326;DHT22;150;52.352;14.058;2023-12-22T12:59:46;6.60;24.40
326;DHT22;150;52.352;14.058;2023-12-22T13:02:14;6.60;24.20
326;DHT22;150;52.352;14.058;2023-12-22T13:04:41;6.60;24.90
326;DHT22;150;52.352;14.058;2023-12-22T13:07:08;6.60;24.60
326;DHT22;150;52.352;14.058;2023-12-22T13:09:36;6.50;24.90
326;DHT22;150;52.352;14.058;2023-12-22T13:12:05;6.50;25.00
326;DHT22;150;52.352;14.058;2023-12-22T13:14:31;6.60;24.70
326;DHT22;150;52.352;14.058;2023-12-22T13:16:58;6.50;25.00
326;DHT22;150;52.352;14.058;2023-12-22T13:19:25;6.60;25.00
326;DHT22;150;52.352;14.058;2023-12-22T13:21:52;6.50;25.50
326;DHT22;150;52.352;14.058;2023-12-22T13:24:19;6.50;25.40
326;DHT22;150;52.352;14.058;2023-12-22T13:26:46;6.50;24.80
326;DHT22;150;52.352;14.058;2023-12-22T13:29:14;6.40;25.30
326;DHT22;150;52.352;14.058;2023-12-22T13:31:41;6.40;25.70
326;DHT22;150;52.352;14.058;2023-12-22T13:34:10;6.50;25.00
326;DHT22;150;52.352;14.058;2023-12-22T13:36:38;6.40;25.50
326;DHT22;150;52.352;14.058;2023-12-22T13:39:05;6.40;25.20
326;DHT22;150;52.352;14.058;2023-12-22T13:41:32;6.40;25.10
326;DHT22;150;52.352;14.058;2023-12-22T13:44:03;6.40;25.30
326;DHT22;150;52.352;14.058;2023-12-22T13:46:31;6.40;25.40
326;DHT22;150;52.352;14.058;2023-12-22T13:48:58;6.40;25.60
326;DHT22;150;52.352;14.058;2023-12-22T13:51:25;6.30;26.20
326;DHT22;150;52.352;14.058;2023-12-22T13:53:52;6.30;26.20
326;DHT22;150;52.352;14.058;2023-12-22T13:56:18;6.30;26.00
326;DHT22;150;52.352;14.058;2023-12-22T13:58:45;6.30;25.80
326;DHT22;150;52.352;14.058;2023-12-22T14:01:13;6.30;26.20
326;DHT22;150;52.352;14.058;2023-12-22T14:03:41;6.30;25.80
326;DHT22;150;52.352;14.058;2023-12-22T14:06:08;6.40;25.60
326;DHT22;150;52.352;14.058;2023-12-22T14:08:38;6.40;25.50
326;DHT22;150;52.352;14.058;2023-12-22T14:11:05;6.50;25.40
326;DHT22;150;52.352;14.058;2023-12-22T14:13:31;6.40;24.50
326;DHT22;150;52.352;14.058;2023-12-22T14:15:58;6.40;24.90
326;DHT22;150;52.352;14.058;2023-12-22T14:18:25;6.40;24.90
326;DHT22;150;52.352;14.058;2023-12-22T14:20:53;6.30;24.70
326;DHT22;150;52.352;14.058;2023-12-22T14:23:20;6.40;24.90
326;DHT22;150;52.352;14.058;2023-12-22T14:25:46;6.40;25.20
326;DHT22;150;52.352;14.058;2023-12-22T14:28:13;6.40;24.40
326;DHT22;150;52.352;14.058;2023-12-22T14:30:40;6.40;24.50
326;DHT22;150;52.352;14.058;2023-12-22T14:33:06;6.30;24.50
326;DHT22;150;52.352;14.058;2023-12-22T14:35:33;6.30;25.20
326;DHT22;150;52.352;14.058;2023-12-22T14:38:01;6.30;25.50
326;DHT22;150;52.352;14.058;2023-12-22T14:40:28;6.30;25.50
326;DHT22;150;52.352;14.058;2023-12-22T14:42:54;6.30;25.80
326;DHT22;150;52.352;14.058;2023-12-22T14:45:21;6.30;25.60
326;DHT22;150;52.352;14.058;2023-12-22T14:47:48;6.30;25.40
326;DHT22;150;52.352;14.058;2023-12-22T14:50:15;6.20;25.80
326;DHT22;150;52.352;14.058;2023-12-22T14:52:42;6.20;25.80
326;DHT22;150;52.352;14.058;2023-12-22T14:55:11;6.20;25.60
326;DHT22;150;52.352;14.058;2023-12-22T14:57:38;6.20;25.90
326;DHT22;150;52.352;14.058;2023-12-22T15:00:05;6.10;25.60
326;DHT22;150;52.352;14.058;2023-12-22T15:02:32;6.10;26.00
326;DHT22;150;52.352;14.058;2023-12-22T15:04:59;6.00;26.10
326;DHT22;150;52.352;14.058;2023-12-22T15:07:25;6.10;26.30
326;DHT22;150;52.352;14.058;2023-12-22T15:09:52;6.10;26.20
326;DHT22;150;52.352;14.058;2023-12-22T15:12:20;6.10;26.60
326;DHT22;150;52.352;14.058;2023-12-22T15:14:47;6.10;27.30
326;DHT22;150;52.352;14.058;2023-12-22T15:17:14;6.00;27.20
326;DHT22;150;52.352;14.058;2023-12-22T15:19:43;6.00;27.40
326;DHT22;150;52.352;14.058;2023-12-22T15:22:10;5.90;27.60
326;DHT22;150;52.352;14.058;2023-12-22T15:24:37;5.90;27.80
326;DHT22;150;52.352;14.058;2023-12-22T15:27:05;5.90;28.10
326;DHT22;150;52.352;14.058;2023-12-22T15:29:33;6.00;28.10
326;DHT22;150;52.352;14.058;2023-12-22T15:32:00;6.00;27.90
326;DHT22;150;52.352;14.058;2023-12-22T15:34:26;5.90;27.60
326;DHT22;150;52.352;14.058;2023-12-22T15:36:53;5.90;27.90
326;DHT22;150;52.352;14.058;2023-12-22T15:39:20;5.70;27.50
326;DHT22;150;52.352;14.058;2023-12-22T15:41:47;5.60;28.10
326;DHT22;150;52.352;14.058;2023-12-22T15:44:13;5.50;27.70
326;DHT22;150;52.352;14.058;2023-12-22T15:46:41;5.60;28.00
326;DHT22;150;52.352;14.058;2023-12-22T15:49:08;5.60;27.00
326;DHT22;150;52.352;14.058;2023-12-22T15:51:35;5.50;27.40
326;DHT22;150;52.352;14.058;2023-12-22T15:54:01;5.50;27.50
326;DHT22;150;52.352;14.058;2023-12-22T15:56:28;5.40;27.60
326;DHT22;150;52.352;14.058;2023-12-22T15:58:55;5.40;27.60
326;DHT22;150;52.352;14.058;2023-12-22T16:01:21;5.50;27.70
326;DHT22;150;52.352;14.058;2023-12-22T16:03:49;5.40;28.10
326;DHT22;150;52.352;14.058;2023-12-22T16:06:16;5.30;28.20
326;DHT22;150;52.352;14.058;2023-12-22T16:08:43;5.30;28.40
326;DHT22;150;52.352;14.058;2023-12-22T16:11:10;5.40;28.60
326;DHT22;150;52.352;14.058;2023-12-22T16:13:36;5.40;28.60
326;DHT22;150;52.352;14.058;2023-12-22T16:16:03;5.30;28.80
326;DHT22;150;52.352;14.058;2023-12-22T16:18:30;5.30;29.00
326;DHT22;150;52.352;14.058;2023-12-22T16:21:00;5.20;29.70
326;DHT22;150;52.352;14.058;2023-12-22T16:23:27;5.30;29.70
326;DHT22;150;52.352;14.058;2023-12-22T16:25:54;5.30;29.70
326;DHT22;150;52.352;14.058;2023-12-22T16:28:22;5.30;29.70
326;DHT22;150;52.352;14.058;2023-12-22T16:30:49;5.40;29.80
326;DHT22;150;52.352;14.058;2023-12-22T16:33:16;5.40;29.80
326;DHT22;150;52.352;14.058;2023-12-22T16:35:43;5.30;29.70